Relevés horaires Bierset (Belgique)


Relevés horaires à Bierset - Dimanche 09 Juill. 2017
Heure UTC1 Température [°C] Vent [km/h] Hum. [%] Pres.4 [hPa] Visi. [Km] Nébu. [octa] Préc.5 [mm] Cond.
2m. Res. Ros. Dir.2 Vit. Moy. Raf.3
23:00 19.2 19.2 9.9 E 3.7 5.6 9.3 55 1010.7(-0.3/3h) 40 6/8 -- --
22:00 18.2 18.2 11.2 N 5.6 5.6 7.4 64 1010.6(-0.3/3h) 40 7/8 -- --
21:00 19.5 19.5 10.9 N 5.6 7.4 11.1 58 1011.2(0.4/3h) 40 6/8 -- --
20:00 20.2 20.2 11.1 N 5.6 7.4 11.1 56 1010.9(-0.2/3h) 25 6/8 -- --
19:00 22.2 22.2 9.7 NE 7.4 7.4 11.1 45 1010.6(-1.0/3h) 25 7/8 -- --
18:00 23.0 23.0 10.7 N 5.6 7.4 11.1 46 1010.5(-1.6/3h) 25 7/8 0/12h
--
17:00 23.3 23.3 10.0 N 5.6 5.6 9.3 43 1011(-1.8/3h) 25 7/8 -- --
16:00 23.6 23.6 10.2 NNO 7.4 7.4 11.1 43 1011.5(-1.9/3h) 15 6/8 -- --
15:00 24.6 24.6 11.7 N 5.6 5.6 11.1 44 1012.1(-1.7/3h) 15 5/8 -- --
14:00 24.4 24.4 11.7 NO 3.7 5.6 9.3 45 1012.8(-1.4/3h) 15 6/8 -- --
13:00 24.1 24.1 13.1 NNO 3.7 3.7 11.1 50 1013.4(-1.1/3h) 15 5/8 -- --
12:00 23.0 23.0 13.8 N 3.7 7.4 11.1 56 1013.9(-1.2/3h) 15 5/8 0/6h
--
11:00 21.6 21.6 14.0 NNO 3.7 5.6 7.4 62 1014.3(-0.8/3h) 15 5/8 -- --
10:00 20.1 20.1 14.1 NNE 5.6 5.6 9.3 68 1014.8(-0.7/3h) 15 4/8 -- --
09:00 18.4 18.4 14.3 N 3.7 7.4 11.1 77 1015.4(-0.1/3h) 15 5/8 -- --
08:00 17.9 17.9 14.1 NE 5.6 5.6 7.4 78 1015.4(-0.4/3h) 15 5/8 -- --
07:00 17.0 17.0 13.4 E 3.7 7.4 11.1 79 1015.7(-0.2/3h) 18 4/8 -- --
06:00 16.1 16.1 13.2 NE 5.6 5.6 7.4 83 1015.7(-0.5/3h) 20 5/8 0/12h
--
05:00 14.7 14.7 12.8 NE 3.7 5.6 7.4 88 1016(-0.5/3h) 20 6/8 -- --
04:00 14.9 14.9 13.2 N 5.6 5.6 7.4 90 1016(-1.0/3h) 15 7/8 -- --
03:00 15.6 15.6 13.8 N 3.7 5.6 7.4 89 1016.2(-0.9/3h) 11 6/8 -- --
02:00 15.6 15.6 14.0 NNO 1.9 3.7 5.6 90 1016.5(-1.0/3h) 11 4/8 -- --
01:00 16.2 16.2 14.3 NO 1.9 5.6 7.4 89 1016.8(-0.6/3h) 15 3/8 -- --
00:00 17.3 17.3 14.9 NNO 3.7 9.3 11.1 86 1017(-0.2/3h) 15 6/8 0/6h
0/24h
--

1 Coordinated Universal Time. Actuellement il est 09:00 locale et 07:00 UTC.

2 Le vent souffle depuis la direction indiquée vers la direction oposée.

3 Les rafales max. sont disponible 40 min après l'heure du relevé.

4 Pour les stations d'altitude (plus de 600m) le géopotentiel du niveau le plus proche de la pression obligatoire est indiqué.

5 Les stations disposant d'un diffuseur peuvent indiquer "trace". Cela signifie que des précipitations ont touchés le sol mais que la quantité est inférieure à 0.1 mm.

Récapitulatif de la journée
Température [°C] Vent [km/h] Ensoleillement4 [h] Precipitations totale5 [mm] Pression [Hpa]
Min1 Max.2 Moy.3 Max. Min Max.
14.4 25.0 6.2 11.1 0 h 0 min 0 1010.5 1017.0

1 Température minimale relevée entre 18:00 UTC la veille et 18:00 UTC le jour donné.

2 Température maximale relevée entre 06:00 UTC le jour donné et 06:00 UTC le lendemain.

3 Vent moyen de la journée basé sur les relevés horaires.

4 Ensoleillement en heures relevé entre 06:00 UTC la veille et 06:00 UTC le jour donné.

5 Précipitations totales tombées entre 06:00 UTC la jour donné et 06:00 UTC le lendemain.

Graphiques horaires